createdAt,value
2022-11-30T00:00:10.663Z,29.17
2022-11-30T00:02:40.224Z,31.37
2022-11-30T00:05:08.996Z,26.67
2022-11-30T00:07:37.258Z,28.13
2022-11-30T00:10:06.776Z,27.23
2022-11-30T00:12:34.987Z,25.10
2022-11-30T00:15:03.187Z,28.53
2022-11-30T00:17:31.227Z,23.53
2022-11-30T00:20:00.705Z,26.33
2022-11-30T00:22:30.067Z,25.77
2022-11-30T00:24:59.511Z,27.03
2022-11-30T00:27:28.801Z,27.00
2022-11-30T00:29:56.883Z,24.40
2022-11-30T00:32:25.231Z,23.73
2022-11-30T00:34:53.506Z,26.50
2022-11-30T00:37:23.255Z,26.73
2022-11-30T00:39:51.390Z,24.63
2022-11-30T00:42:19.520Z,24.70
2022-11-30T00:44:47.756Z,21.20
2022-11-30T00:47:16.059Z,24.23
2022-11-30T00:49:44.104Z,23.07
2022-11-30T00:52:12.169Z,22.13
2022-11-30T00:54:41.629Z,25.23
2022-11-30T00:57:09.652Z,26.33
2022-11-30T00:59:37.667Z,25.77
2022-11-30T01:02:05.801Z,25.40
2022-11-30T01:04:33.888Z,27.83
2022-11-30T01:07:01.953Z,24.33
2022-11-30T01:09:30.024Z,24.87
2022-11-30T01:11:59.483Z,25.67
2022-11-30T01:14:27.672Z,23.67
2022-11-30T01:16:56.488Z,24.07
2022-11-30T01:19:25.243Z,26.23
2022-11-30T01:21:53.255Z,25.97
2022-11-30T01:24:21.327Z,27.10
2022-11-30T01:26:49.413Z,22.60
2022-11-30T01:29:18.816Z,25.10
2022-11-30T01:31:46.885Z,24.70
2022-11-30T01:34:14.966Z,24.93
2022-11-30T01:36:44.006Z,25.23
2022-11-30T01:39:12.243Z,25.43
2022-11-30T01:41:40.335Z,23.43
2022-11-30T01:44:56.943Z,24.33
2022-11-30T01:47:31.654Z,23.73
2022-11-30T01:50:04.948Z,25.03
2022-11-30T01:52:36.684Z,32.53
2022-11-30T01:55:13.409Z,24.50
2022-11-30T01:57:45.959Z,24.63
2022-11-30T02:00:16.061Z,26.53
2022-11-30T02:02:53.035Z,25.00
2022-11-30T02:05:22.254Z,26.97
2022-11-30T02:07:50.447Z,28.60
2022-11-30T02:10:22.050Z,23.87
2022-11-30T02:13:17.055Z,28.80
2022-11-30T02:15:54.680Z,24.57
2022-11-30T02:18:30.313Z,23.80
2022-11-30T02:21:07.433Z,25.50
2022-11-30T02:24:21.710Z,22.70
2022-11-30T02:27:01.171Z,22.47
2022-11-30T02:29:35.068Z,25.90
2022-11-30T02:32:09.321Z,24.50
2022-11-30T02:34:41.929Z,24.63
2022-11-30T02:37:13.387Z,23.80
2022-11-30T02:39:41.460Z,22.50
2022-11-30T02:42:12.781Z,21.57
2022-11-30T02:44:44.551Z,21.77
2022-11-30T02:47:20.184Z,21.77
2022-11-30T02:49:54.938Z,21.00
2022-11-30T02:52:26.198Z,20.40
2022-11-30T02:54:54.657Z,21.57
2022-11-30T02:57:22.708Z,23.03
2022-11-30T02:59:52.249Z,25.00
2022-11-30T03:07:41.088Z,22.77
2022-11-30T03:10:10.964Z,22.80
2022-11-30T03:12:39.253Z,24.63
2022-11-30T03:15:09.302Z,25.63
2022-11-30T03:17:37.310Z,24.67
2022-11-30T03:20:06.350Z,23.57
2022-11-30T03:22:34.426Z,25.50
2022-11-30T03:25:02.532Z,23.23
2022-11-30T03:27:30.556Z,24.70
2022-11-30T03:29:58.559Z,22.93
2022-11-30T03:32:27.984Z,23.30
2022-11-30T03:34:56.035Z,21.83
2022-11-30T03:37:24.172Z,20.90
2022-11-30T03:39:57.728Z,24.07
2022-11-30T03:42:26.370Z,23.60
2022-11-30T03:44:54.442Z,27.10
2022-11-30T03:47:22.467Z,23.97
2022-11-30T03:49:51.874Z,24.07
2022-11-30T03:52:19.912Z,26.10
2022-11-30T03:54:48.158Z,25.20
2022-11-30T03:57:16.424Z,26.17
2022-11-30T03:59:44.479Z,26.83
2022-11-30T04:02:12.592Z,25.87
2022-11-30T04:04:40.664Z,25.13
2022-11-30T04:11:30.857Z,23.73
2022-11-30T04:13:58.916Z,24.07
2022-11-30T04:16:26.995Z,25.23
2022-11-30T04:18:55.134Z,25.10
2022-11-30T04:21:23.194Z,23.60
2022-11-30T04:23:51.173Z,25.47
2022-11-30T04:26:19.549Z,26.83
2022-11-30T04:28:48.962Z,26.10
2022-11-30T04:31:17.012Z,26.50
2022-11-30T04:33:45.139Z,28.60
2022-11-30T04:36:19.434Z,26.67
2022-11-30T04:38:48.079Z,27.33
2022-11-30T04:41:16.381Z,25.83
2022-11-30T04:43:44.510Z,29.10
2022-11-30T04:46:14.068Z,27.73
2022-11-30T04:48:42.156Z,27.13
2022-11-30T04:51:10.581Z,29.10
2022-11-30T04:53:39.359Z,27.40
2022-11-30T04:56:08.306Z,26.90
2022-11-30T04:58:36.752Z,28.17
2022-11-30T05:01:04.795Z,26.80
2022-11-30T05:03:34.233Z,26.53
2022-11-30T05:06:02.304Z,23.87
2022-11-30T05:08:30.479Z,25.50
2022-11-30T05:10:58.705Z,24.13
2022-11-30T05:13:27.312Z,28.13
2022-11-30T05:15:55.679Z,24.37
2022-11-30T05:18:23.969Z,26.97
2022-11-30T05:20:54.150Z,25.67
2022-11-30T05:23:22.618Z,25.03
2022-11-30T05:25:51.909Z,27.63
2022-11-30T05:28:20.195Z,34.53
2022-11-30T05:30:48.294Z,28.83
2022-11-30T05:33:16.309Z,36.20
2022-11-30T05:35:44.680Z,35.50
2022-11-30T05:38:14.107Z,33.23
2022-11-30T05:40:42.165Z,31.47
2022-11-30T05:43:10.747Z,37.60
2022-11-30T05:45:38.769Z,47.10
2022-11-30T05:48:07.547Z,53.50
2022-11-30T05:50:35.593Z,42.57
2022-11-30T05:53:03.640Z,44.60
2022-11-30T05:55:33.243Z,43.70
2022-11-30T05:58:01.988Z,46.77
2022-11-30T06:00:30.041Z,53.87
2022-11-30T06:02:58.697Z,53.37
2022-11-30T06:05:27.435Z,46.97
2022-11-30T06:07:55.684Z,40.43
2022-11-30T06:10:25.367Z,40.93
2022-11-30T06:12:54.843Z,43.43
2022-11-30T06:15:25.008Z,43.40
2022-11-30T06:17:53.311Z,39.67
2022-11-30T06:20:21.360Z,36.40
2022-11-30T06:22:49.400Z,33.90
2022-11-30T06:25:17.473Z,31.47
2022-11-30T06:27:45.497Z,35.70
2022-11-30T06:30:16.166Z,33.67
2022-11-30T06:32:46.436Z,29.37
2022-11-30T06:35:14.737Z,34.70
2022-11-30T06:37:43.099Z,33.07
2022-11-30T06:40:13.257Z,31.43
2022-11-30T06:42:41.813Z,34.70
2022-11-30T06:45:10.793Z,27.13
2022-11-30T06:47:40.223Z,30.47
2022-11-30T06:50:12.403Z,25.37
2022-11-30T06:52:40.497Z,29.00
2022-11-30T06:55:09.378Z,26.93
2022-11-30T06:57:37.451Z,29.70
2022-11-30T07:00:06.470Z,27.23
2022-11-30T07:02:34.592Z,27.00
2022-11-30T07:05:04.042Z,24.40
2022-11-30T07:07:32.369Z,24.00
2022-11-30T07:10:00.653Z,24.27
2022-11-30T07:12:28.717Z,27.27
2022-11-30T07:14:56.739Z,24.13
2022-11-30T07:17:24.882Z,24.77
2022-11-30T07:19:52.910Z,28.70
2022-11-30T07:22:22.314Z,29.63
2022-11-30T07:25:07.870Z,27.23
2022-11-30T07:27:36.045Z,28.17
2022-11-30T07:30:04.486Z,28.40
2022-11-30T07:32:32.563Z,23.83
2022-11-30T07:35:00.605Z,23.50
2022-11-30T07:37:30.020Z,25.20
2022-11-30T07:39:58.231Z,25.77
2022-11-30T07:42:26.285Z,26.47
2022-11-30T07:44:58.708Z,31.37
2022-11-30T07:47:27.341Z,30.10
2022-11-30T07:49:55.407Z,31.27
2022-11-30T07:52:23.458Z,27.50
2022-11-30T07:54:53.737Z,24.87
2022-11-30T07:57:21.868Z,26.97
2022-11-30T07:59:50.261Z,28.70
2022-11-30T08:02:18.683Z,31.53
2022-11-30T08:04:47.291Z,26.60
2022-11-30T08:07:15.826Z,28.10
2022-11-30T08:09:45.144Z,27.20
2022-11-30T08:12:14.577Z,27.17
2022-11-30T08:15:17.502Z,32.17
2022-11-30T08:17:30.632Z,25.53
2022-11-30T08:19:58.635Z,27.83
2022-11-30T08:22:26.681Z,31.63
2022-11-30T08:24:54.756Z,31.80
2022-11-30T08:27:24.129Z,26.73
2022-11-30T08:29:53.081Z,29.33
2022-11-30T08:32:21.407Z,34.37
2022-11-30T08:34:49.679Z,35.27
2022-11-30T08:37:18.004Z,33.23
2022-11-30T08:39:46.038Z,38.53
2022-11-30T08:42:14.090Z,41.47
2022-11-30T08:44:43.508Z,35.83
2022-11-30T08:47:11.629Z,36.63
2022-11-30T08:49:39.628Z,36.43
2022-11-30T08:52:22.921Z,32.17
2022-11-30T08:54:51.415Z,41.50
2022-11-30T08:57:21.613Z,34.07
2022-11-30T08:59:51.115Z,37.93
2022-11-30T09:02:20.319Z,40.47
2022-11-30T09:04:51.257Z,37.87
2022-11-30T09:07:19.909Z,39.87
2022-11-30T09:09:48.195Z,37.47
2022-11-30T09:12:16.242Z,34.60
2022-11-30T09:14:45.623Z,34.90
2022-11-30T09:17:15.750Z,33.93
2022-11-30T09:19:46.549Z,33.10
2022-11-30T09:22:14.733Z,35.60
2022-11-30T09:24:42.709Z,28.63
2022-11-30T09:27:10.847Z,32.13
2022-11-30T09:29:38.950Z,30.20
2022-11-30T09:32:07.632Z,34.03
2022-11-30T09:34:37.060Z,28.70
2022-11-30T09:37:05.119Z,29.03
2022-11-30T09:39:33.222Z,35.23
2022-11-30T09:42:27.580Z,29.30
2022-11-30T09:45:02.892Z,29.33
2022-11-30T09:47:45.835Z,28.70
2022-11-30T09:50:19.688Z,33.10
2022-11-30T09:52:52.317Z,33.20
2022-11-30T09:55:27.679Z,33.37
2022-11-30T09:57:57.799Z,32.20
2022-11-30T10:00:26.617Z,29.80
2022-11-30T10:02:57.610Z,28.57
2022-11-30T10:05:35.451Z,27.83
2022-11-30T10:08:24.603Z,32.17
2022-11-30T10:11:03.902Z,31.00
2022-11-30T10:13:49.428Z,29.37
2022-11-30T10:16:27.807Z,37.07
2022-11-30T10:19:03.176Z,31.10
2022-11-30T10:21:43.335Z,33.47
2022-11-30T10:24:22.547Z,27.77
2022-11-30T10:26:55.463Z,26.57
2022-11-30T10:29:30.653Z,26.03
2022-11-30T10:32:01.409Z,25.20
2022-11-30T10:34:34.507Z,27.90
2022-11-30T10:37:12.582Z,27.17
2022-11-30T10:39:45.443Z,28.73
2022-11-30T10:42:18.743Z,26.67
2022-11-30T10:44:54.208Z,26.90
2022-11-30T10:47:26.397Z,29.87
2022-11-30T10:49:54.651Z,26.50
2022-11-30T10:52:28.130Z,25.43
2022-11-30T10:55:03.697Z,26.73
2022-11-30T10:57:33.546Z,27.57
2022-11-30T11:00:06.512Z,29.47
2022-11-30T11:02:41.314Z,27.10
2022-11-30T11:05:15.577Z,30.47
2022-11-30T11:07:52.161Z,26.43
2022-11-30T11:10:22.691Z,29.43
2022-11-30T11:12:52.712Z,30.37
2022-11-30T11:15:23.075Z,28.73
2022-11-30T11:17:51.687Z,27.20
2022-11-30T11:20:35.733Z,27.83
2022-11-30T11:23:05.622Z,24.60
2022-11-30T11:25:36.198Z,27.73
2022-11-30T11:28:13.707Z,26.67
2022-11-30T11:30:42.262Z,26.37
2022-11-30T11:33:21.652Z,25.23
2022-11-30T11:35:51.134Z,23.27
2022-11-30T11:38:29.767Z,23.23
2022-11-30T11:41:01.226Z,24.10
2022-11-30T11:43:31.373Z,19.73
2022-11-30T11:46:03.978Z,20.83
2022-11-30T11:48:36.208Z,20.80
2022-11-30T11:51:08.010Z,17.57
2022-11-30T11:53:48.713Z,14.03
2022-11-30T11:56:26.271Z,13.63
2022-11-30T11:58:59.773Z,15.17
2022-11-30T12:01:41.735Z,14.90
2022-11-30T12:04:35.190Z,13.40
2022-11-30T12:07:15.051Z,13.10
2022-11-30T12:09:58.311Z,14.27
2022-11-30T12:12:26.376Z,18.67
2022-11-30T12:14:56.157Z,15.83
2022-11-30T12:17:39.859Z,20.33
2022-11-30T12:20:18.552Z,14.17
2022-11-30T12:23:03.065Z,16.77
2022-11-30T12:25:37.576Z,16.83
2022-11-30T12:28:18.263Z,17.10
2022-11-30T12:30:58.002Z,17.60
2022-11-30T12:33:36.105Z,17.77
2022-11-30T12:36:14.307Z,14.63
2022-11-30T12:38:49.292Z,17.23
2022-11-30T12:41:39.392Z,15.47
2022-11-30T12:44:18.226Z,14.87
2022-11-30T12:46:55.002Z,16.47
2022-11-30T12:49:36.062Z,22.87
2022-11-30T12:52:14.004Z,17.83
2022-11-30T12:54:50.890Z,14.93
2022-11-30T12:57:27.085Z,16.47
2022-11-30T13:00:07.015Z,16.87
2022-11-30T13:03:02.767Z,18.03
2022-11-30T13:05:36.368Z,14.57
2022-11-30T13:08:13.143Z,18.70
2022-11-30T13:10:45.583Z,17.83
2022-11-30T13:13:18.531Z,21.57
2022-11-30T13:15:49.741Z,16.63
2022-11-30T13:18:21.157Z,16.20
2022-11-30T13:20:54.971Z,18.23
2022-11-30T13:23:31.766Z,15.43
2022-11-30T13:26:08.292Z,18.80
2022-11-30T13:28:50.680Z,17.77
2022-11-30T13:31:23.409Z,18.33
2022-11-30T13:33:59.207Z,18.77
2022-11-30T13:36:32.974Z,14.93
2022-11-30T13:39:22.500Z,15.03
2022-11-30T13:41:54.754Z,17.63
2022-11-30T13:44:32.172Z,18.47
2022-11-30T13:47:01.742Z,16.67
2022-11-30T13:49:31.813Z,17.60
2022-11-30T13:52:25.014Z,17.37
2022-11-30T13:54:51.133Z,15.30
2022-11-30T13:57:52.431Z,17.50
2022-11-30T14:00:48.179Z,13.73
2022-11-30T14:03:27.737Z,16.63
2022-11-30T14:05:56.702Z,13.43
2022-11-30T14:08:39.825Z,17.30
2022-11-30T14:11:37.237Z,19.30
2022-11-30T14:14:45.852Z,16.63
2022-11-30T14:17:22.385Z,18.73
2022-11-30T14:19:53.001Z,16.03
2022-11-30T14:22:21.952Z,15.73
2022-11-30T14:24:51.401Z,13.33
2022-11-30T14:27:23.474Z,15.23
2022-11-30T14:29:54.322Z,15.73
2022-11-30T14:32:35.016Z,17.53
2022-11-30T14:35:09.182Z,17.00
2022-11-30T14:37:43.351Z,16.03
2022-11-30T14:40:19.138Z,17.63
2022-11-30T14:42:51.284Z,16.47
2022-11-30T14:45:25.407Z,16.63
2022-11-30T14:48:05.231Z,15.23
2022-11-30T14:50:34.010Z,13.87
2022-11-30T14:53:15.516Z,16.87
2022-11-30T14:55:51.192Z,14.50
2022-11-30T14:58:26.015Z,12.87
2022-11-30T15:00:54.984Z,13.30
2022-11-30T15:03:28.524Z,15.73
2022-11-30T15:05:59.233Z,15.57
2022-11-30T15:08:33.840Z,13.97
2022-11-30T15:11:05.766Z,13.13
2022-11-30T15:13:34.655Z,16.83
2022-11-30T15:16:02.686Z,13.53
2022-11-30T15:18:32.115Z,14.07
2022-11-30T15:21:04.548Z,17.47
2022-11-30T15:23:32.737Z,14.40
2022-11-30T15:26:04.450Z,17.27
2022-11-30T15:28:35.260Z,16.77
2022-11-30T15:31:08.970Z,16.27
2022-11-30T15:33:44.546Z,19.60
2022-11-30T15:36:28.013Z,17.13
2022-11-30T15:39:03.758Z,17.23
2022-11-30T15:41:33.036Z,18.70
2022-11-30T15:44:02.081Z,21.20
2022-11-30T15:46:33.021Z,18.70
2022-11-30T15:49:17.088Z,19.63
2022-11-30T15:51:46.970Z,20.10
2022-11-30T15:54:15.524Z,17.90
2022-11-30T15:56:56.677Z,22.83
2022-11-30T15:59:26.361Z,20.60
2022-11-30T16:02:04.839Z,22.90
2022-11-30T16:05:02.724Z,21.00
2022-11-30T16:07:33.955Z,21.87
2022-11-30T16:10:05.618Z,24.17
2022-11-30T16:12:34.009Z,21.43
2022-11-30T16:15:02.384Z,19.77
2022-11-30T16:17:30.588Z,21.70
2022-11-30T16:19:58.774Z,25.00
2022-11-30T16:22:26.806Z,21.53
2022-11-30T16:24:56.270Z,21.03
2022-11-30T16:27:24.320Z,20.77
2022-11-30T16:29:53.081Z,22.17
2022-11-30T16:32:21.253Z,23.57
2022-11-30T16:34:51.410Z,22.37
2022-11-30T16:37:19.781Z,21.57
2022-11-30T16:39:48.592Z,21.37
2022-11-30T16:42:18.283Z,22.40
2022-11-30T16:44:46.409Z,20.17
2022-11-30T16:47:14.632Z,16.97
2022-11-30T16:49:42.857Z,20.40
2022-11-30T16:52:16.569Z,19.90
2022-11-30T16:54:44.730Z,21.93
2022-11-30T16:57:12.740Z,21.03
2022-11-30T16:59:42.357Z,19.00
2022-11-30T17:02:20.730Z,18.67
2022-11-30T17:04:49.144Z,19.80
2022-11-30T17:07:17.525Z,19.30
2022-11-30T17:09:45.675Z,18.30
2022-11-30T17:12:13.864Z,17.53
2022-11-30T17:14:43.309Z,18.70
2022-11-30T17:17:11.609Z,17.07
2022-11-30T17:19:39.892Z,16.47
2022-11-30T17:22:08.150Z,17.30
2022-11-30T17:24:36.270Z,17.43
2022-11-30T17:27:05.778Z,16.97
2022-11-30T17:29:34.000Z,17.50
2022-11-30T17:32:06.054Z,20.93
2022-11-30T17:34:34.276Z,19.93
2022-11-30T17:37:02.466Z,16.17
2022-11-30T17:39:30.733Z,17.17
2022-11-30T17:41:58.853Z,18.07
2022-11-30T17:44:26.935Z,18.60
2022-11-30T17:46:54.977Z,17.30
2022-11-30T17:49:24.378Z,17.97
2022-11-30T17:51:52.563Z,17.20
2022-11-30T17:54:20.717Z,19.37
2022-11-30T17:56:48.804Z,19.20
2022-11-30T17:59:16.811Z,19.43
2022-11-30T18:01:44.936Z,21.90
2022-11-30T18:04:13.548Z,21.67
2022-11-30T18:06:42.954Z,23.67
2022-11-30T18:09:11.542Z,21.80
2022-11-30T18:11:39.894Z,23.30
2022-11-30T18:14:07.921Z,21.73
2022-11-30T18:16:38.127Z,22.63
2022-11-30T18:19:12.493Z,25.60
2022-11-30T18:21:43.799Z,22.70
2022-11-30T18:24:12.793Z,25.07
2022-11-30T18:26:41.484Z,24.60
2022-11-30T18:29:11.591Z,23.13
2022-11-30T18:31:39.745Z,24.83
2022-11-30T18:34:08.541Z,26.47
2022-11-30T18:36:36.626Z,22.40
2022-11-30T18:39:06.124Z,23.30
2022-11-30T18:41:34.196Z,24.70
2022-11-30T18:44:02.243Z,23.00
2022-11-30T18:46:30.808Z,26.33
2022-11-30T18:48:59.502Z,26.00
2022-11-30T18:51:29.383Z,25.17
2022-11-30T18:53:59.429Z,22.27
2022-11-30T18:56:31.727Z,26.97
2022-11-30T18:59:02.157Z,23.57
2022-11-30T19:01:31.638Z,21.33
2022-11-30T19:04:01.674Z,25.20
2022-11-30T19:06:33.132Z,27.70
2022-11-30T19:09:03.424Z,28.80
2022-11-30T19:11:34.315Z,26.00
2022-11-30T19:14:03.052Z,25.70
2022-11-30T19:16:33.242Z,28.20
2022-11-30T19:19:03.130Z,24.10
2022-11-30T19:21:31.179Z,26.43
2022-11-30T19:23:59.820Z,26.60
2022-11-30T19:26:28.714Z,27.10
2022-11-30T19:28:58.781Z,26.27
2022-11-30T19:31:27.531Z,29.03
2022-11-30T19:33:57.090Z,27.83
2022-11-30T19:36:27.026Z,29.60
2022-11-30T19:38:55.224Z,32.40
2022-11-30T19:41:23.723Z,27.60
2022-11-30T19:44:02.851Z,31.90
2022-11-30T19:46:33.068Z,31.13
2022-11-30T19:49:02.304Z,29.40
2022-11-30T19:51:31.267Z,31.13
2022-11-30T19:54:00.308Z,31.30
2022-11-30T19:56:30.086Z,33.67
2022-11-30T19:59:05.204Z,35.33
2022-11-30T20:01:35.194Z,31.80
2022-11-30T20:04:04.494Z,28.70
2022-11-30T20:06:34.110Z,30.80
2022-11-30T20:09:02.328Z,31.93
2022-11-30T20:11:30.727Z,33.20
2022-11-30T20:14:00.428Z,33.23
2022-11-30T20:16:29.527Z,34.37
2022-11-30T20:19:00.766Z,28.17
2022-11-30T20:21:31.493Z,30.97
2022-11-30T20:24:01.469Z,30.67
2022-11-30T20:26:31.384Z,31.83
2022-11-30T20:29:02.163Z,35.70
2022-11-30T20:31:31.572Z,33.50
2022-11-30T20:34:00.136Z,36.90
2022-11-30T20:36:28.645Z,28.60
2022-11-30T20:38:56.781Z,31.30
2022-11-30T20:41:25.610Z,28.20
2022-11-30T20:43:54.408Z,31.47
2022-11-30T20:46:25.617Z,29.73
2022-11-30T20:48:54.024Z,30.97
2022-11-30T20:51:32.730Z,34.37
2022-11-30T20:54:03.086Z,36.43
2022-11-30T20:56:31.490Z,33.57
2022-11-30T20:59:02.676Z,35.40
2022-11-30T21:01:32.160Z,35.80
2022-11-30T21:04:00.893Z,32.40
2022-11-30T21:06:29.892Z,39.33
2022-11-30T21:08:57.983Z,39.90
2022-11-30T21:11:26.588Z,41.10
2022-11-30T21:13:55.312Z,41.83
2022-11-30T21:16:28.070Z,39.63
2022-11-30T21:18:59.117Z,46.33
2022-11-30T21:21:30.541Z,37.93
2022-11-30T21:24:00.377Z,45.53
2022-11-30T21:26:30.958Z,38.07
2022-11-30T21:29:01.762Z,43.90
2022-11-30T21:31:30.941Z,41.27
2022-11-30T21:34:00.649Z,45.37
2022-11-30T21:36:28.863Z,39.03
2022-11-30T21:39:04.444Z,41.17
2022-11-30T21:41:33.014Z,41.43
2022-11-30T21:44:01.091Z,39.93
2022-11-30T21:46:29.821Z,45.00
2022-11-30T21:48:57.954Z,33.83
2022-11-30T21:51:29.438Z,37.87
2022-11-30T21:53:59.973Z,42.77
2022-11-30T21:56:30.051Z,41.77
2022-11-30T21:58:58.791Z,39.63
2022-11-30T22:01:29.544Z,40.57
2022-11-30T22:03:59.081Z,42.00
2022-11-30T22:06:30.016Z,49.10
2022-11-30T22:09:02.752Z,44.73
2022-11-30T22:11:31.997Z,51.30
2022-11-30T22:14:00.104Z,48.90
2022-11-30T22:16:34.149Z,45.77
2022-11-30T22:19:05.338Z,52.63
2022-11-30T22:21:35.543Z,52.67
2022-11-30T22:24:05.637Z,48.93
2022-11-30T22:26:35.680Z,55.10
2022-11-30T22:29:06.579Z,51.03
2022-11-30T22:31:36.574Z,61.03
2022-11-30T22:34:05.253Z,55.03
2022-11-30T22:36:37.007Z,55.77
2022-11-30T22:39:07.761Z,54.47
2022-11-30T22:41:35.795Z,49.27
2022-11-30T22:44:04.474Z,48.93
2022-11-30T22:46:34.288Z,50.20
2022-11-30T22:49:04.890Z,46.33
2022-11-30T22:51:36.092Z,48.10
2022-11-30T22:54:04.493Z,41.77
2022-11-30T22:56:34.368Z,43.33
2022-11-30T22:59:03.034Z,41.20
2022-11-30T23:01:33.047Z,46.87
2022-11-30T23:04:03.669Z,44.60
2022-11-30T23:06:31.757Z,47.43
2022-11-30T23:09:01.412Z,48.43
2022-11-30T23:11:30.163Z,47.00
2022-11-30T23:13:58.725Z,45.20
2022-11-30T23:16:27.120Z,43.57
2022-11-30T23:18:57.224Z,46.73
2022-11-30T23:21:28.333Z,49.93
2022-11-30T23:23:59.423Z,49.93
2022-11-30T23:26:30.615Z,50.77
2022-11-30T23:29:01.501Z,45.30
2022-11-30T23:31:32.653Z,45.50
2022-11-30T23:34:03.250Z,45.23
2022-11-30T23:36:31.298Z,45.60
2022-11-30T23:39:01.564Z,44.37
2022-11-30T23:41:30.994Z,46.90
2022-11-30T23:43:59.129Z,47.00
2022-11-30T23:46:27.391Z,50.50
2022-11-30T23:48:56.014Z,52.17
2022-11-30T23:51:24.703Z,45.40
2022-11-30T23:53:52.915Z,49.70
2022-11-30T23:56:23.264Z,54.80
2022-11-30T23:58:52.943Z,48.27
